sensor_id;sensor_type;location;lat;lon;timestamp;pressure;altitude;pressure_sealevel;temperature
16759;BMP280;8497;51.346;12.396;2024-03-22T00:00:03;100890.41;;;10.50
16759;BMP280;8497;51.346;12.396;2024-03-22T00:02:31;100884.41;;;10.48
16759;BMP280;8497;51.346;12.396;2024-03-22T00:05:01;100884.47;;;10.49
16759;BMP280;8497;51.346;12.396;2024-03-22T00:07:32;100880.16;;;10.47
16759;BMP280;8497;51.346;12.396;2024-03-22T00:09:58;100878.44;;;10.46
16759;BMP280;8497;51.346;12.396;2024-03-22T00:12:26;100878.28;;;10.43
16759;BMP280;8497;51.346;12.396;2024-03-22T00:14:55;100876.41;;;10.39
16759;BMP280;8497;51.346;12.396;2024-03-22T00:17:22;100874.59;;;10.37
16759;BMP280;8497;51.346;12.396;2024-03-22T00:19:49;100868.69;;;10.36
16759;BMP280;8497;51.346;12.396;2024-03-22T00:22:16;100866.88;;;10.34
16759;BMP280;8497;51.346;12.396;2024-03-22T00:24:45;100861.84;;;10.34
16759;BMP280;8497;51.346;12.396;2024-03-22T00:27:13;100864.28;;;10.32
16759;BMP280;8497;51.346;12.396;2024-03-22T00:29:39;100871.06;;;10.33
16759;BMP280;8497;51.346;12.396;2024-03-22T00:32:07;100853.19;;;10.29
16759;BMP280;8497;51.346;12.396;2024-03-22T00:34:34;100853.72;;;10.23
16759;BMP280;8497;51.346;12.396;2024-03-22T00:37:03;100848.38;;;10.17
16759;BMP280;8497;51.346;12.396;2024-03-22T00:39:31;100854.94;;;10.14
16759;BMP280;8497;51.346;12.396;2024-03-22T00:41:59;100853.25;;;10.14
16759;BMP280;8497;51.346;12.396;2024-03-22T00:44:26;100847.22;;;10.11
16759;BMP280;8497;51.346;12.396;2024-03-22T00:46:53;100847.28;;;10.12
16759;BMP280;8497;51.346;12.396;2024-03-22T00:49:20;100844.53;;;10.08
16759;BMP280;8497;51.346;12.396;2024-03-22T00:51:47;100842.75;;;10.05
16759;BMP280;8497;51.346;12.396;2024-03-22T00:54:14;100841.78;;;10.03
16759;BMP280;8497;51.346;12.396;2024-03-22T00:56:41;100839.28;;;10.03
16759;BMP280;8497;51.346;12.396;2024-03-22T00:59:10;100829.75;;;9.98
16759;BMP280;8497;51.346;12.396;2024-03-22T01:01:37;100833.94;;;9.98
16759;BMP280;8497;51.346;12.396;2024-03-22T01:04:05;100827.16;;;9.97
16759;BMP280;8497;51.346;12.396;2024-03-22T01:06:31;100835.50;;;9.96
16759;BMP280;8497;51.346;12.396;2024-03-22T01:08:59;100815.34;;;9.96
16759;BMP280;8497;51.346;12.396;2024-03-22T01:11:26;100812.75;;;9.94
16759;BMP280;8497;51.346;12.396;2024-03-22T01:13:53;100806.88;;;9.94
16759;BMP280;8497;51.346;12.396;2024-03-22T01:16:21;100805.00;;;9.91
16759;BMP280;8497;51.346;12.396;2024-03-22T01:18:49;100807.44;;;9.90
16759;BMP280;8497;51.346;12.396;2024-03-22T01:21:15;100799.91;;;9.90
16759;BMP280;8497;51.346;12.396;2024-03-22T01:23:43;100795.94;;;9.93
16759;BMP280;8497;51.346;12.396;2024-03-22T01:26:09;100781.69;;;9.94
16759;BMP280;8497;51.346;12.396;2024-03-22T01:28:37;100787.03;;;10.00
16759;BMP280;8497;51.346;12.396;2024-03-22T01:31:04;100790.63;;;10.04
16759;BMP280;8497;51.346;12.396;2024-03-22T01:33:35;100784.03;;;10.06
16759;BMP280;8497;51.346;12.396;2024-03-22T01:36:01;100796.75;;;10.09
16759;BMP280;8497;51.346;12.396;2024-03-22T01:38:31;100786.47;;;10.05
16759;BMP280;8497;51.346;12.396;2024-03-22T01:40:57;100788.91;;;10.03
16759;BMP280;8497;51.346;12.396;2024-03-22T01:43:25;100773.63;;;10.01
16759;BMP280;8497;51.346;12.396;2024-03-22T01:45:51;100774.69;;;10.04
16759;BMP280;8497;51.346;12.396;2024-03-22T01:48:19;100764.53;;;10.03
16759;BMP280;8497;51.346;12.396;2024-03-22T01:50:48;100761.19;;;10.03
16759;BMP280;8497;51.346;12.396;2024-03-22T01:53:15;100756.16;;;10.03
16759;BMP280;8497;51.346;12.396;2024-03-22T01:55:42;100757.91;;;10.04
16759;BMP280;8497;51.346;12.396;2024-03-22T01:58:11;100744.31;;;10.01
16759;BMP280;8497;51.346;12.396;2024-03-22T02:00:38;100749.50;;;10.04
16759;BMP280;8497;51.346;12.396;2024-03-22T02:03:06;100743.56;;;10.03
16759;BMP280;8497;51.346;12.396;2024-03-22T02:05:32;100741.06;;;10.03
16759;BMP280;8497;51.346;12.396;2024-03-22T02:08:01;100730.91;;;10.02
16759;BMP280;8497;51.346;12.396;2024-03-22T02:10:28;100731.22;;;10.08
16759;BMP280;8497;51.346;12.396;2024-03-22T02:12:56;100737.06;;;10.07
16759;BMP280;8497;51.346;12.396;2024-03-22T02:15:24;100728.78;;;10.09
16759;BMP280;8497;51.346;12.396;2024-03-22T02:18:15;100734.84;;;10.13
16759;BMP280;8497;51.346;12.396;2024-03-22T02:20:51;100725.31;;;10.07
16759;BMP280;8497;51.346;12.396;2024-03-22T02:23:32;100729.84;;;10.14
16759;BMP280;8497;51.346;12.396;2024-03-22T02:26:00;100720.50;;;10.12
16759;BMP280;8497;51.346;12.396;2024-03-22T02:28:27;100718.00;;;10.12
16759;BMP280;8497;51.346;12.396;2024-03-22T02:30:54;100702.16;;;10.14
16759;BMP280;8497;51.346;12.396;2024-03-22T02:33:22;100701.06;;;10.09
16759;BMP280;8497;51.346;12.396;2024-03-22T02:35:50;100707.06;;;10.11
16759;BMP280;8497;51.346;12.396;2024-03-22T02:38:18;100701.28;;;10.14
16759;BMP280;8497;51.346;12.396;2024-03-22T02:40:48;100695.56;;;10.16
16759;BMP280;8497;51.346;12.396;2024-03-22T02:43:16;100697.47;;;10.22
16759;BMP280;8497;51.346;12.396;2024-03-22T02:45:46;100696.91;;;10.27
16759;BMP280;8497;51.346;12.396;2024-03-22T02:48:14;100699.75;;;10.33
16759;BMP280;8497;51.346;12.396;2024-03-22T02:50:41;100696.25;;;10.31
16759;BMP280;8497;51.346;12.396;2024-03-22T02:53:09;100688.78;;;10.33
16759;BMP280;8497;51.346;12.396;2024-03-22T02:55:40;100685.41;;;10.32
16759;BMP280;8497;51.346;12.396;2024-03-22T02:58:12;100684.78;;;10.36
16759;BMP280;8497;51.346;12.396;2024-03-22T03:00:39;100684.63;;;10.33
16759;BMP280;8497;51.346;12.396;2024-03-22T03:03:07;100694.78;;;10.35
16759;BMP280;8497;51.346;12.396;2024-03-22T03:05:34;100690.44;;;10.32
16759;BMP280;8497;51.346;12.396;2024-03-22T03:08:02;100683.81;;;10.34
16759;BMP280;8497;51.346;12.396;2024-03-22T03:10:30;100679.44;;;10.30
16759;BMP280;8497;51.346;12.396;2024-03-22T03:12:57;100689.38;;;10.27
16759;BMP280;8497;51.346;12.396;2024-03-22T03:15:26;100681.59;;;10.23
16759;BMP280;8497;51.346;12.396;2024-03-22T03:17:54;100686.84;;;10.27
16759;BMP280;8497;51.346;12.396;2024-03-22T03:20:20;100680.75;;;10.22
16759;BMP280;8497;51.346;12.396;2024-03-22T03:22:48;100672.72;;;10.13
16759;BMP280;8497;51.346;12.396;2024-03-22T03:25:14;100667.63;;;10.12
16759;BMP280;8497;51.346;12.396;2024-03-22T03:27:42;100659.41;;;10.16
16759;BMP280;8497;51.346;12.396;2024-03-22T03:30:09;100658.00;;;10.21
16759;BMP280;8497;51.346;12.396;2024-03-22T03:32:38;100652.22;;;10.23
16759;BMP280;8497;51.346;12.396;2024-03-22T03:35:06;100652.22;;;10.23
16759;BMP280;8497;51.346;12.396;2024-03-22T03:37:36;100652.22;;;10.23
16759;BMP280;8497;51.346;12.396;2024-03-22T03:40:04;100646.25;;;10.21
16759;BMP280;8497;51.346;12.396;2024-03-22T03:42:31;100648.91;;;10.24
16759;BMP280;8497;51.346;12.396;2024-03-22T03:44:58;100645.53;;;10.24
16759;BMP280;8497;51.346;12.396;2024-03-22T03:47:25;100643.09;;;10.25
16759;BMP280;8497;51.346;12.396;2024-03-22T03:49:57;100631.34;;;10.26
16759;BMP280;8497;51.346;12.396;2024-03-22T03:52:25;100633.22;;;10.30
16759;BMP280;8497;51.346;12.396;2024-03-22T03:54:51;100631.34;;;10.26
16759;BMP280;8497;51.346;12.396;2024-03-22T03:57:19;100633.06;;;10.27
16759;BMP280;8497;51.346;12.396;2024-03-22T03:59:45;100634.72;;;10.26
16759;BMP280;8497;51.346;12.396;2024-03-22T04:02:13;100630.44;;;10.24
16759;BMP280;8497;51.346;12.396;2024-03-22T04:04:40;100619.47;;;10.23
16759;BMP280;8497;51.346;12.396;2024-03-22T04:07:09;100607.84;;;10.25
16759;BMP280;8497;51.346;12.396;2024-03-22T04:09:35;100606.09;;;10.24
16759;BMP280;8497;51.346;12.396;2024-03-22T04:12:04;100611.91;;;10.23
16759;BMP280;8497;51.346;12.396;2024-03-22T04:14:30;100603.28;;;10.18
16759;BMP280;8497;51.346;12.396;2024-03-22T04:16:58;100600.91;;;10.21
16759;BMP280;8497;51.346;12.396;2024-03-22T04:19:24;100592.28;;;10.16
16759;BMP280;8497;51.346;12.396;2024-03-22T04:21:52;100589.63;;;10.13
16759;BMP280;8497;51.346;12.396;2024-03-22T04:24:20;100583.91;;;10.17
16759;BMP280;8497;51.346;12.396;2024-03-22T04:26:47;100590.19;;;10.25
16759;BMP280;8497;51.346;12.396;2024-03-22T04:29:14;100586.94;;;10.28
16759;BMP280;8497;51.346;12.396;2024-03-22T04:31:42;100588.59;;;10.27
16759;BMP280;8497;51.346;12.396;2024-03-22T04:34:08;100585.28;;;10.28
16759;BMP280;8497;51.346;12.396;2024-03-22T04:36:36;100580.13;;;10.25
16759;BMP280;8497;51.346;12.396;2024-03-22T04:39:03;100580.13;;;10.25
16759;BMP280;8497;51.346;12.396;2024-03-22T04:41:32;100573.34;;;10.24
16759;BMP280;8497;51.346;12.396;2024-03-22T04:44:00;100564.88;;;10.22
16759;BMP280;8497;51.346;12.396;2024-03-22T04:46:27;100561.53;;;10.23
16759;BMP280;8497;51.346;12.396;2024-03-22T04:48:54;100559.22;;;10.28
16759;BMP280;8497;51.346;12.396;2024-03-22T04:51:21;100561.69;;;10.26
16759;BMP280;8497;51.346;12.396;2024-03-22T04:53:49;100555.84;;;10.27
16759;BMP280;8497;51.346;12.396;2024-03-22T04:56:15;100548.22;;;10.26
16759;BMP280;8497;51.346;12.396;2024-03-22T04:58:44;100549.75;;;10.22
16759;BMP280;8497;51.346;12.396;2024-03-22T05:01:11;100547.03;;;10.18
16759;BMP280;8497;51.346;12.396;2024-03-22T05:03:38;100541.91;;;10.16
16759;BMP280;8497;51.346;12.396;2024-03-22T05:06:07;100543.63;;;10.17
16759;BMP280;8497;51.346;12.396;2024-03-22T05:08:34;100550.53;;;10.21
16759;BMP280;8497;51.346;12.396;2024-03-22T05:11:03;100549.75;;;10.22
16759;BMP280;8497;51.346;12.396;2024-03-22T05:13:31;100550.59;;;10.23
16759;BMP280;8497;51.346;12.396;2024-03-22T05:15:59;100547.03;;;10.18
16759;BMP280;8497;51.346;12.396;2024-03-22T05:18:27;100552.00;;;10.16
16759;BMP280;8497;51.346;12.396;2024-03-22T05:20:54;100543.75;;;10.20
16759;BMP280;8497;51.346;12.396;2024-03-22T05:23:22;100534.72;;;10.24
16759;BMP280;8497;51.346;12.396;2024-03-22T05:25:48;100530.53;;;10.24
16759;BMP280;8497;51.346;12.396;2024-03-22T05:28:16;100531.59;;;10.29
16759;BMP280;8497;51.346;12.396;2024-03-22T05:30:42;100540.06;;;10.31
16759;BMP280;8497;51.346;12.396;2024-03-22T05:33:14;100530.06;;;10.33
16759;BMP280;8497;51.346;12.396;2024-03-22T05:35:41;100526.91;;;10.37
16759;BMP280;8497;51.346;12.396;2024-03-22T05:38:08;100523.53;;;10.36
16759;BMP280;8497;51.346;12.396;2024-03-22T05:40:36;100521.94;;;10.38
16759;BMP280;8497;51.346;12.396;2024-03-22T05:43:04;100523.66;;;10.39
16759;BMP280;8497;51.346;12.396;2024-03-22T05:45:31;100521.25;;;10.42
16759;BMP280;8497;51.346;12.396;2024-03-22T05:47:59;100515.56;;;10.46
16759;BMP280;8497;51.346;12.396;2024-03-22T05:50:26;100522.72;;;10.56
16759;BMP280;8497;51.346;12.396;2024-03-22T05:52:54;100517.09;;;10.61
16759;BMP280;8497;51.346;12.396;2024-03-22T05:55:21;100512.13;;;10.63
16759;BMP280;8497;51.346;12.396;2024-03-22T05:57:49;100522.28;;;10.64
16759;BMP280;8497;51.346;12.396;2024-03-22T06:00:15;100519.69;;;10.63
16759;BMP280;8497;51.346;12.396;2024-03-22T06:02:49;100510.59;;;10.66
16759;BMP280;8497;51.346;12.396;2024-03-22T06:05:18;100506.31;;;10.64
16759;BMP280;8497;51.346;12.396;2024-03-22T06:07:47;100505.09;;;10.75
16759;BMP280;8497;51.346;12.396;2024-03-22T06:10:14;100506.16;;;10.80
16759;BMP280;8497;51.346;12.396;2024-03-22T06:12:42;100508.94;;;10.86
16759;BMP280;8497;51.346;12.396;2024-03-22T06:15:13;100504.22;;;10.93
16759;BMP280;8497;51.346;12.396;2024-03-22T06:17:41;100504.44;;;10.99
16759;BMP280;8497;51.346;12.396;2024-03-22T06:20:10;100506.31;;;11.03
16759;BMP280;8497;51.346;12.396;2024-03-22T06:22:38;100490.28;;;11.01
16759;BMP280;8497;51.346;12.396;2024-03-22T06:25:09;100493.09;;;11.08
16759;BMP280;8497;51.346;12.396;2024-03-22T06:27:36;100491.75;;;11.16
16759;BMP280;8497;51.346;12.396;2024-03-22T06:30:04;100492.03;;;11.24
16759;BMP280;8497;51.346;12.396;2024-03-22T06:32:32;100482.69;;;11.41
16759;BMP280;8497;51.346;12.396;2024-03-22T06:34:58;100490.09;;;11.57
16759;BMP280;8497;51.346;12.396;2024-03-22T06:37:26;100481.09;;;11.64
16759;BMP280;8497;51.346;12.396;2024-03-22T06:39:52;100476.16;;;11.67
16759;BMP280;8497;51.346;12.396;2024-03-22T06:42:22;100473.34;;;11.80
16759;BMP280;8497;51.346;12.396;2024-03-22T06:44:49;100467.94;;;11.92
16759;BMP280;8497;51.346;12.396;2024-03-22T06:47:17;100460.66;;;12.00
16759;BMP280;8497;51.346;12.396;2024-03-22T06:49:46;100463.47;;;12.07
16759;BMP280;8497;51.346;12.396;2024-03-22T06:52:14;100471.44;;;12.18
16759;BMP280;8497;51.346;12.396;2024-03-22T06:54:41;100467.13;;;12.15
16759;BMP280;8497;51.346;12.396;2024-03-22T06:57:08;100462.81;;;12.13
16759;BMP280;8497;51.346;12.396;2024-03-22T06:59:38;100456.28;;;12.18
16759;BMP280;8497;51.346;12.396;2024-03-22T07:02:06;100447.44;;;12.29
16759;BMP280;8497;51.346;12.396;2024-03-22T07:04:35;100443.59;;;12.39
16759;BMP280;8497;51.346;12.396;2024-03-22T07:07:03;100430.91;;;12.38
16759;BMP280;8497;51.346;12.396;2024-03-22T07:09:33;100432.72;;;12.42
16759;BMP280;8497;51.346;12.396;2024-03-22T07:12:00;100436.25;;;12.47
16759;BMP280;8497;51.346;12.396;2024-03-22T07:14:29;100441.59;;;12.54
16759;BMP280;8497;51.346;12.396;2024-03-22T07:17:03;100438.00;;;12.48
16759;BMP280;8497;51.346;12.396;2024-03-22T07:19:33;100443.22;;;12.52
16759;BMP280;8497;51.346;12.396;2024-03-22T07:22:01;100437.47;;;12.56
16759;BMP280;8497;51.346;12.396;2024-03-22T07:24:27;100427.53;;;12.62
16759;BMP280;8497;51.346;12.396;2024-03-22T07:26:55;100423.59;;;12.69
16759;BMP280;8497;51.346;12.396;2024-03-22T07:29:21;100427.00;;;12.71
16759;BMP280;8497;51.346;12.396;2024-03-22T07:31:49;100423.59;;;12.69
16759;BMP280;8497;51.346;12.396;2024-03-22T07:34:17;100433.81;;;12.72
16759;BMP280;8497;51.346;12.396;2024-03-22T07:36:47;100432.91;;;12.71
16759;BMP280;8497;51.346;12.396;2024-03-22T07:39:13;100439.00;;;12.76
16759;BMP280;8497;51.346;12.396;2024-03-22T07:41:41;100447.47;;;12.77
16759;BMP280;8497;51.346;12.396;2024-03-22T07:44:08;100448.56;;;12.83
16759;BMP280;8497;51.346;12.396;2024-03-22T07:46:35;100440.22;;;12.85
16759;BMP280;8497;51.346;12.396;2024-03-22T07:49:02;100443.66;;;12.87
16759;BMP280;8497;51.346;12.396;2024-03-22T07:51:31;100443.91;;;12.95
16759;BMP280;8497;51.346;12.396;2024-03-22T07:53:58;100436.69;;;13.07
16759;BMP280;8497;51.346;12.396;2024-03-22T07:56:25;100437.84;;;13.16
16759;BMP280;8497;51.346;12.396;2024-03-22T07:58:53;100421.78;;;13.14
16759;BMP280;8497;51.346;12.396;2024-03-22T08:01:21;100434.03;;;13.28
16759;BMP280;8497;51.346;12.396;2024-03-22T08:03:48;100422.81;;;13.47
16759;BMP280;8497;51.346;12.396;2024-03-22T08:06:16;100419.97;;;13.63
16759;BMP280;8497;51.346;12.396;2024-03-22T08:08:44;100423.84;;;13.79
16759;BMP280;8497;51.346;12.396;2024-03-22T08:11:14;100424.09;;;13.88
16759;BMP280;8497;51.346;12.396;2024-03-22T08:13:41;100434.97;;;13.84
16759;BMP280;8497;51.346;12.396;2024-03-22T08:16:09;100426.25;;;13.75
16759;BMP280;8497;51.346;12.396;2024-03-22T08:18:35;100417.78;;;13.74
16759;BMP280;8497;51.346;12.396;2024-03-22T08:21:04;100420.41;;;13.77
16759;BMP280;8497;51.346;12.396;2024-03-22T08:23:30;100420.06;;;13.93
16759;BMP280;8497;51.346;12.396;2024-03-22T08:26:01;100416.06;;;14.01
16759;BMP280;8497;51.346;12.396;2024-03-22T08:28:28;100412.00;;;14.06
16759;BMP280;8497;51.346;12.396;2024-03-22T08:30:56;100405.72;;;14.23
16759;BMP280;8497;51.346;12.396;2024-03-22T08:33:23;100410.31;;;14.36
16759;BMP280;8497;51.346;12.396;2024-03-22T08:35:50;100390.19;;;14.42
16759;BMP280;8497;51.346;12.396;2024-03-22T08:38:17;100391.69;;;14.66
16759;BMP280;8497;51.346;12.396;2024-03-22T08:40:44;100388.56;;;14.76
16759;BMP280;8497;51.346;12.396;2024-03-22T08:43:15;100382.03;;;14.85
16759;BMP280;8497;51.346;12.396;2024-03-22T08:45:42;100383.16;;;14.96
16759;BMP280;8497;51.346;12.396;2024-03-22T08:48:11;100386.38;;;15.21
16759;BMP280;8497;51.346;12.396;2024-03-22T08:50:37;100384.97;;;15.34
16759;BMP280;8497;51.346;12.396;2024-03-22T08:53:05;100379.13;;;15.38
16759;BMP280;8497;51.346;12.396;2024-03-22T08:55:33;100372.22;;;15.32
16759;BMP280;8497;51.346;12.396;2024-03-22T08:58:01;100373.56;;;15.17
16759;BMP280;8497;51.346;12.396;2024-03-22T09:00:28;100352.19;;;15.09
16759;BMP280;8497;51.346;12.396;2024-03-22T09:02:56;100354.09;;;15.17
16759;BMP280;8497;51.346;12.396;2024-03-22T09:05:24;100339.78;;;15.21
16759;BMP280;8497;51.346;12.396;2024-03-22T09:07:53;100346.47;;;15.17
16759;BMP280;8497;51.346;12.396;2024-03-22T09:10:21;100344.72;;;15.15
16759;BMP280;8497;51.346;12.396;2024-03-22T09:12:49;100334.50;;;15.12
16759;BMP280;8497;51.346;12.396;2024-03-22T09:15:16;100342.41;;;15.24
16759;BMP280;8497;51.346;12.396;2024-03-22T09:17:45;100331.75;;;15.38
16759;BMP280;8497;51.346;12.396;2024-03-22T09:20:12;100329.00;;;15.67
16759;BMP280;8497;51.346;12.396;2024-03-22T09:22:40;100314.78;;;15.77
16759;BMP280;8497;51.346;12.396;2024-03-22T09:25:07;100318.47;;;15.91
16759;BMP280;8497;51.346;12.396;2024-03-22T09:27:35;100308.56;;;16.05
16759;BMP280;8497;51.346;12.396;2024-03-22T09:30:01;100314.16;;;16.29
16759;BMP280;8497;51.346;12.396;2024-03-22T09:32:30;100314.41;;;16.44
16759;BMP280;8497;51.346;12.396;2024-03-22T09:34:59;100317.25;;;16.60
16759;BMP280;8497;51.346;12.396;2024-03-22T09:37:27;100310.75;;;16.77
16759;BMP280;8497;51.346;12.396;2024-03-22T09:39:53;100303.16;;;16.80
16759;BMP280;8497;51.346;12.396;2024-03-22T09:42:23;100310.91;;;16.86
16759;BMP280;8497;51.346;12.396;2024-03-22T09:44:51;100300.81;;;16.92
16759;BMP280;8497;51.346;12.396;2024-03-22T09:47:19;100288.19;;;17.01
16759;BMP280;8497;51.346;12.396;2024-03-22T09:49:47;100296.59;;;16.94
16759;BMP280;8497;51.346;12.396;2024-03-22T09:52:19;100280.19;;;16.76
16759;BMP280;8497;51.346;12.396;2024-03-22T09:54:47;100286.00;;;16.67
16759;BMP280;8497;51.346;12.396;2024-03-22T09:57:15;100284.22;;;16.63
16759;BMP280;8497;51.346;12.396;2024-03-22T09:59:42;100269.59;;;16.50
16759;BMP280;8497;51.346;12.396;2024-03-22T10:02:13;100277.91;;;16.42
16759;BMP280;8497;51.346;12.396;2024-03-22T10:04:41;100273.78;;;16.48
16759;BMP280;8497;51.346;12.396;2024-03-22T10:07:09;100275.56;;;16.52
16759;BMP280;8497;51.346;12.396;2024-03-22T10:09:37;100270.47;;;16.52
16759;BMP280;8497;51.346;12.396;2024-03-22T10:12:07;100256.19;;;16.60
16759;BMP280;8497;51.346;12.396;2024-03-22T10:14:34;100270.47;;;16.52
16759;BMP280;8497;51.346;12.396;2024-03-22T10:17:03;100265.41;;;16.54
16759;BMP280;8497;51.346;12.396;2024-03-22T10:19:29;100252.00;;;16.64
16759;BMP280;8497;51.346;12.396;2024-03-22T10:22:01;100252.75;;;16.58
16759;BMP280;8497;51.346;12.396;2024-03-22T10:24:27;100240.88;;;16.57
16759;BMP280;8497;51.346;12.396;2024-03-22T10:27:00;100241.00;;;16.65
16759;BMP280;8497;51.346;12.396;2024-03-22T10:29:34;100234.19;;;16.65
16759;BMP280;8497;51.346;12.396;2024-03-22T10:32:23;100242.81;;;16.73
16759;BMP280;8497;51.346;12.396;2024-03-22T10:35:07;100236.03;;;16.72
16759;BMP280;8497;51.346;12.396;2024-03-22T10:37:42;100235.94;;;16.66
16759;BMP280;8497;51.346;12.396;2024-03-22T10:40:12;100234.97;;;16.60
16759;BMP280;8497;51.346;12.396;2024-03-22T10:42:45;100226.50;;;16.61
16759;BMP280;8497;51.346;12.396;2024-03-22T10:45:13;100232.56;;;16.70
16759;BMP280;8497;51.346;12.396;2024-03-22T10:47:42;100226.13;;;16.92
16759;BMP280;8497;51.346;12.396;2024-03-22T10:50:12;100210.03;;;16.94
16759;BMP280;8497;51.346;12.396;2024-03-22T10:52:48;100214.31;;;16.95
16759;BMP280;8497;51.346;12.396;2024-03-22T10:55:24;100210.25;;;17.09
16759;BMP280;8497;51.346;12.396;2024-03-22T10:57:55;100200.28;;;17.24
16759;BMP280;8497;51.346;12.396;2024-03-22T11:00:28;100196.41;;;17.52
16759;BMP280;8497;51.346;12.396;2024-03-22T11:02:56;100197.34;;;17.60
16759;BMP280;8497;51.346;12.396;2024-03-22T11:05:23;100194.78;;;17.60
16759;BMP280;8497;51.346;12.396;2024-03-22T11:07:59;100188.25;;;17.83
16759;BMP280;8497;51.346;12.396;2024-03-22T11:10:29;100188.38;;;18.01
16759;BMP280;8497;51.346;12.396;2024-03-22T11:13:02;100187.66;;;18.11
16759;BMP280;8497;51.346;12.396;2024-03-22T11:15:53;100198.03;;;18.29
16759;BMP280;8497;51.346;12.396;2024-03-22T11:18:21;100181.03;;;18.28
16759;BMP280;8497;51.346;12.396;2024-03-22T11:20:47;100182.00;;;18.41
16759;BMP280;8497;51.346;12.396;2024-03-22T11:23:15;100177.03;;;18.62
16759;BMP280;8497;51.346;12.396;2024-03-22T11:25:41;100167.78;;;18.82
16759;BMP280;8497;51.346;12.396;2024-03-22T11:28:10;100168.63;;;18.84
16759;BMP280;8497;51.346;12.396;2024-03-22T11:30:38;100160.09;;;18.76
16759;BMP280;8497;51.346;12.396;2024-03-22T11:33:07;100155.66;;;18.50
16759;BMP280;8497;51.346;12.396;2024-03-22T11:35:34;100157.28;;;18.37
16759;BMP280;8497;51.346;12.396;2024-03-22T11:38:04;100155.63;;;18.42
16759;BMP280;8497;51.346;12.396;2024-03-22T11:40:32;100147.22;;;18.58
16759;BMP280;8497;51.346;12.396;2024-03-22T11:43:03;100136.28;;;18.79
16759;BMP280;8497;51.346;12.396;2024-03-22T11:45:32;100133.78;;;18.93
16759;BMP280;8497;51.346;12.396;2024-03-22T11:48:02;100121.91;;;18.98
16759;BMP280;8497;51.346;12.396;2024-03-22T11:50:30;100119.34;;;18.97
16759;BMP280;8497;51.346;12.396;2024-03-22T11:53:06;100112.50;;;18.90
16759;BMP280;8497;51.346;12.396;2024-03-22T11:55:35;100099.66;;;18.77
16759;BMP280;8497;51.346;12.396;2024-03-22T11:58:09;100110.78;;;18.80
16759;BMP280;8497;51.346;12.396;2024-03-22T12:00:38;100115.00;;;18.78
16759;BMP280;8497;51.346;12.396;2024-03-22T12:03:09;100109.00;;;18.72
16759;BMP280;8497;51.346;12.396;2024-03-22T12:05:40;100105.66;;;18.81
16759;BMP280;8497;51.346;12.396;2024-03-22T12:08:08;100103.09;;;18.80
16759;BMP280;8497;51.346;12.396;2024-03-22T12:10:34;100090.38;;;18.86
16759;BMP280;8497;51.346;12.396;2024-03-22T12:13:07;100085.25;;;18.83
16759;BMP280;8497;51.346;12.396;2024-03-22T12:15:47;100086.91;;;18.77
16759;BMP280;8497;51.346;12.396;2024-03-22T12:18:17;100088.56;;;18.67
16759;BMP280;8497;51.346;12.396;2024-03-22T12:20:43;100082.59;;;18.62
16759;BMP280;8497;51.346;12.396;2024-03-22T12:23:11;100082.50;;;18.52
16759;BMP280;8497;51.346;12.396;2024-03-22T12:25:38;100072.31;;;18.55
16759;BMP280;8497;51.346;12.396;2024-03-22T12:28:05;100068.13;;;18.67
16759;BMP280;8497;51.346;12.396;2024-03-22T12:30:32;100070.78;;;18.86
16759;BMP280;8497;51.346;12.396;2024-03-22T12:33:02;100058.13;;;19.01
16759;BMP280;8497;51.346;12.396;2024-03-22T12:35:28;100057.19;;;18.98
16759;BMP280;8497;51.346;12.396;2024-03-22T12:37:58;100060.56;;;18.85
16759;BMP280;8497;51.346;12.396;2024-03-22T12:40:25;100051.16;;;18.78
16759;BMP280;8497;51.346;12.396;2024-03-22T12:42:53;100045.22;;;18.78
16759;BMP280;8497;51.346;12.396;2024-03-22T12:45:23;100047.84;;;18.92
16759;BMP280;8497;51.346;12.396;2024-03-22T12:47:52;100028.25;;;18.96
16759;BMP280;8497;51.346;12.396;2024-03-22T12:50:20;100025.75;;;19.02
16759;BMP280;8497;51.346;12.396;2024-03-22T12:52:48;100029.09;;;18.92
16759;BMP280;8497;51.346;12.396;2024-03-22T12:55:14;100035.84;;;18.78
16759;BMP280;8497;51.346;12.396;2024-03-22T12:57:42;100031.63;;;18.83
16759;BMP280;8497;51.346;12.396;2024-03-22T13:00:10;100018.00;;;18.88
16759;BMP280;8497;51.346;12.396;2024-03-22T13:02:44;100016.31;;;18.81
16759;BMP280;8497;51.346;12.396;2024-03-22T13:05:11;100012.00;;;18.70
16759;BMP280;8497;51.346;12.396;2024-03-22T13:07:40;100012.88;;;18.71
16759;BMP280;8497;51.346;12.396;2024-03-22T13:10:07;100023.97;;;18.83
16759;BMP280;8497;51.346;12.396;2024-03-22T13:12:35;100014.69;;;19.01
16759;BMP280;8497;51.346;12.396;2024-03-22T13:15:02;100001.91;;;19.03
16759;BMP280;8497;51.346;12.396;2024-03-22T13:17:30;100010.44;;;19.08
16759;BMP280;8497;51.346;12.396;2024-03-22T13:19:57;100001.94;;;19.13
16759;BMP280;8497;51.346;12.396;2024-03-22T13:22:26;100001.13;;;19.26
16759;BMP280;8497;51.346;12.396;2024-03-22T13:24:54;99988.34;;;19.29
16759;BMP280;8497;51.346;12.396;2024-03-22T13:27:22;99990.03;;;19.31
16759;BMP280;8497;51.346;12.396;2024-03-22T13:29:53;99980.66;;;19.30
16759;BMP280;8497;51.346;12.396;2024-03-22T13:32:21;99973.84;;;19.22
16759;BMP280;8497;51.346;12.396;2024-03-22T13:34:47;99963.66;;;19.31
16759;BMP280;8497;51.346;12.396;2024-03-22T13:37:16;99950.88;;;19.31
16759;BMP280;8497;51.346;12.396;2024-03-22T13:39:43;99957.69;;;19.22
16759;BMP280;8497;51.346;12.396;2024-03-22T13:42:15;99960.22;;;19.22
16759;BMP280;8497;51.346;12.396;2024-03-22T13:44:41;99948.31;;;19.35
16759;BMP280;8497;51.346;12.396;2024-03-22T13:47:09;99943.22;;;19.40
16759;BMP280;8497;51.346;12.396;2024-03-22T13:49:38;99949.16;;;19.28
16759;BMP280;8497;51.346;12.396;2024-03-22T13:52:07;99943.19;;;19.31
16759;BMP280;8497;51.346;12.396;2024-03-22T13:54:34;99934.66;;;19.30
16759;BMP280;8497;51.346;12.396;2024-03-22T13:57:01;99936.38;;;19.40
16759;BMP280;8497;51.346;12.396;2024-03-22T13:59:30;99936.38;;;19.40
16759;BMP280;8497;51.346;12.396;2024-03-22T14:01:57;99944.03;;;19.26